sensor_id;sensor_type;location;lat;lon;timestamp;temperature;humidity
43999;DHT22;51319;52.162;5.302;2022-10-16T00:02:07;12.90;92.70
43999;DHT22;51319;52.162;5.302;2022-10-16T00:04:33;12.90;92.60
43999;DHT22;51319;52.162;5.302;2022-10-16T00:06:59;12.90;92.80
43999;DHT22;51319;52.162;5.302;2022-10-16T00:09:25;12.90;92.50
43999;DHT22;51319;52.162;5.302;2022-10-16T00:11:51;12.90;92.40
43999;DHT22;51319;52.162;5.302;2022-10-16T00:14:17;12.90;92.30
43999;DHT22;51319;52.162;5.302;2022-10-16T00:16:43;12.80;92.30
43999;DHT22;51319;52.162;5.302;2022-10-16T00:19:11;12.80;92.30
43999;DHT22;51319;52.162;5.302;2022-10-16T00:21:38;12.80;92.30
43999;DHT22;51319;52.162;5.302;2022-10-16T00:24:07;12.80;92.30
43999;DHT22;51319;52.162;5.302;2022-10-16T00:26:35;12.80;92.40
43999;DHT22;51319;52.162;5.302;2022-10-16T00:29:02;12.80;92.40
43999;DHT22;51319;52.162;5.302;2022-10-16T00:31:28;12.80;92.40
43999;DHT22;51319;52.162;5.302;2022-10-16T00:33:55;12.80;92.40
43999;DHT22;51319;52.162;5.302;2022-10-16T00:36:23;12.80;92.20
43999;DHT22;51319;52.162;5.302;2022-10-16T00:38:52;12.80;92.20
43999;DHT22;51319;52.162;5.302;2022-10-16T00:41:19;12.80;92.20
43999;DHT22;51319;52.162;5.302;2022-10-16T00:43:47;12.80;92.20
43999;DHT22;51319;52.162;5.302;2022-10-16T00:46:20;12.80;92.20
43999;DHT22;51319;52.162;5.302;2022-10-16T00:49:03;12.80;92.20
43999;DHT22;51319;52.162;5.302;2022-10-16T00:51:36;12.80;92.50
43999;DHT22;51319;52.162;5.302;2022-10-16T00:54:04;12.90;92.20
43999;DHT22;51319;52.162;5.302;2022-10-16T00:56:34;12.90;92.10
43999;DHT22;51319;52.162;5.302;2022-10-16T00:59:04;12.90;92.10
43999;DHT22;51319;52.162;5.302;2022-10-16T01:01:33;12.90;92.10
43999;DHT22;51319;52.162;5.302;2022-10-16T01:03:59;13.00;92.10
43999;DHT22;51319;52.162;5.302;2022-10-16T01:06:39;13.00;92.10
43999;DHT22;51319;52.162;5.302;2022-10-16T01:09:31;13.10;92.20
43999;DHT22;51319;52.162;5.302;2022-10-16T01:12:38;13.10;92.20
43999;DHT22;51319;52.162;5.302;2022-10-16T01:15:14;13.20;92.10
43999;DHT22;51319;52.162;5.302;2022-10-16T01:17:49;13.20;92.00
43999;DHT22;51319;52.162;5.302;2022-10-16T01:20:32;13.30;92.00
43999;DHT22;51319;52.162;5.302;2022-10-16T01:23:20;13.30;92.00
43999;DHT22;51319;52.162;5.302;2022-10-16T01:28:41;13.30;92.00
43999;DHT22;51319;52.162;5.302;2022-10-16T01:31:11;13.30;92.00
43999;DHT22;51319;52.162;5.302;2022-10-16T01:33:42;13.30;92.10
43999;DHT22;51319;52.162;5.302;2022-10-16T01:36:15;13.30;92.10
43999;DHT22;51319;52.162;5.302;2022-10-16T01:38:44;13.30;92.10
43999;DHT22;51319;52.162;5.302;2022-10-16T01:41:15;13.40;92.20
43999;DHT22;51319;52.162;5.302;2022-10-16T01:44:07;13.40;92.20
43999;DHT22;51319;52.162;5.302;2022-10-16T01:46:35;13.40;92.20
43999;DHT22;51319;52.162;5.302;2022-10-16T01:49:03;13.40;92.20
43999;DHT22;51319;52.162;5.302;2022-10-16T01:51:32;13.40;92.30
43999;DHT22;51319;52.162;5.302;2022-10-16T01:54:00;13.40;92.30
43999;DHT22;51319;52.162;5.302;2022-10-16T01:56:27;13.40;92.30
43999;DHT22;51319;52.162;5.302;2022-10-16T01:59:12;13.50;92.20
43999;DHT22;51319;52.162;5.302;2022-10-16T02:01:42;13.40;92.30
43999;DHT22;51319;52.162;5.302;2022-10-16T02:04:33;13.40;92.30
43999;DHT22;51319;52.162;5.302;2022-10-16T02:07:00;13.40;92.40
43999;DHT22;51319;52.162;5.302;2022-10-16T02:09:26;13.40;92.50
43999;DHT22;51319;52.162;5.302;2022-10-16T02:11:55;13.40;92.60
43999;DHT22;51319;52.162;5.302;2022-10-16T02:14:23;13.40;92.70
43999;DHT22;51319;52.162;5.302;2022-10-16T02:16:50;13.30;92.70
43999;DHT22;51319;52.162;5.302;2022-10-16T02:19:17;13.30;92.70
43999;DHT22;51319;52.162;5.302;2022-10-16T02:22:00;13.30;92.80
43999;DHT22;51319;52.162;5.302;2022-10-16T02:27:24;13.20;92.90
43999;DHT22;51319;52.162;5.302;2022-10-16T02:29:57;13.10;92.90
43999;DHT22;51319;52.162;5.302;2022-10-16T02:32:29;13.00;93.00
43999;DHT22;51319;52.162;5.302;2022-10-16T02:34:57;13.00;93.10
43999;DHT22;51319;52.162;5.302;2022-10-16T02:37:24;12.90;93.50
43999;DHT22;51319;52.162;5.302;2022-10-16T02:39:56;12.80;93.30
43999;DHT22;51319;52.162;5.302;2022-10-16T02:42:29;12.80;93.50
43999;DHT22;51319;52.162;5.302;2022-10-16T02:44:59;12.70;93.60
43999;DHT22;51319;52.162;5.302;2022-10-16T02:47:26;12.80;93.80
43999;DHT22;51319;52.162;5.302;2022-10-16T02:49:52;12.80;93.90
43999;DHT22;51319;52.162;5.302;2022-10-16T02:52:18;12.80;94.00
43999;DHT22;51319;52.162;5.302;2022-10-16T02:54:44;12.80;94.10
43999;DHT22;51319;52.162;5.302;2022-10-16T02:57:11;12.80;94.20
43999;DHT22;51319;52.162;5.302;2022-10-16T02:59:38;12.90;94.10
43999;DHT22;51319;52.162;5.302;2022-10-16T03:02:04;12.90;94.20
43999;DHT22;51319;52.162;5.302;2022-10-16T03:04:30;12.90;94.20
43999;DHT22;51319;52.162;5.302;2022-10-16T03:06:56;13.00;94.20
43999;DHT22;51319;52.162;5.302;2022-10-16T03:09:23;13.00;94.10
43999;DHT22;51319;52.162;5.302;2022-10-16T03:11:49;13.00;94.40
43999;DHT22;51319;52.162;5.302;2022-10-16T03:14:15;13.00;94.00
43999;DHT22;51319;52.162;5.302;2022-10-16T03:16:41;13.10;94.00
43999;DHT22;51319;52.162;5.302;2022-10-16T03:19:08;13.00;93.90
43999;DHT22;51319;52.162;5.302;2022-10-16T03:21:34;13.00;93.90
43999;DHT22;51319;52.162;5.302;2022-10-16T03:24:00;13.00;93.90
43999;DHT22;51319;52.162;5.302;2022-10-16T03:26:26;12.90;93.90
43999;DHT22;51319;52.162;5.302;2022-10-16T03:28:52;12.80;94.00
43999;DHT22;51319;52.162;5.302;2022-10-16T03:31:18;12.80;94.10
43999;DHT22;51319;52.162;5.302;2022-10-16T03:33:45;12.80;94.20
43999;DHT22;51319;52.162;5.302;2022-10-16T03:36:11;12.80;94.50
43999;DHT22;51319;52.162;5.302;2022-10-16T03:38:37;12.80;94.30
43999;DHT22;51319;52.162;5.302;2022-10-16T03:41:03;12.80;94.50
43999;DHT22;51319;52.162;5.302;2022-10-16T03:43:30;12.70;94.40
43999;DHT22;51319;52.162;5.302;2022-10-16T03:45:56;12.60;94.40
43999;DHT22;51319;52.162;5.302;2022-10-16T03:48:22;12.60;94.50
43999;DHT22;51319;52.162;5.302;2022-10-16T03:50:48;12.50;94.60
43999;DHT22;51319;52.162;5.302;2022-10-16T03:53:16;12.50;94.80
43999;DHT22;51319;52.162;5.302;2022-10-16T03:55:43;12.50;94.90
43999;DHT22;51319;52.162;5.302;2022-10-16T03:58:09;12.50;95.00
43999;DHT22;51319;52.162;5.302;2022-10-16T04:00:42;12.50;95.10
43999;DHT22;51319;52.162;5.302;2022-10-16T04:03:09;12.50;95.20
43999;DHT22;51319;52.162;5.302;2022-10-16T04:05:36;12.50;95.20
43999;DHT22;51319;52.162;5.302;2022-10-16T04:08:03;12.50;95.10
43999;DHT22;51319;52.162;5.302;2022-10-16T04:10:29;12.50;95.20
43999;DHT22;51319;52.162;5.302;2022-10-16T04:12:55;12.50;95.20
43999;DHT22;51319;52.162;5.302;2022-10-16T04:15:25;12.50;95.20
43999;DHT22;51319;52.162;5.302;2022-10-16T04:17:51;12.50;95.60
43999;DHT22;51319;52.162;5.302;2022-10-16T04:20:18;12.50;95.40
43999;DHT22;51319;52.162;5.302;2022-10-16T04:22:44;12.60;95.40
43999;DHT22;51319;52.162;5.302;2022-10-16T04:25:11;12.60;95.40
43999;DHT22;51319;52.162;5.302;2022-10-16T04:27:38;12.60;95.30
43999;DHT22;51319;52.162;5.302;2022-10-16T04:30:11;12.60;95.30
43999;DHT22;51319;52.162;5.302;2022-10-16T04:32:37;12.50;95.30
43999;DHT22;51319;52.162;5.302;2022-10-16T04:35:03;12.50;95.30
43999;DHT22;51319;52.162;5.302;2022-10-16T04:37:29;12.50;95.40
43999;DHT22;51319;52.162;5.302;2022-10-16T04:39:55;12.50;95.40
43999;DHT22;51319;52.162;5.302;2022-10-16T04:42:22;12.40;95.50
43999;DHT22;51319;52.162;5.302;2022-10-16T04:44:48;12.40;95.50
43999;DHT22;51319;52.162;5.302;2022-10-16T04:47:14;12.50;95.60
43999;DHT22;51319;52.162;5.302;2022-10-16T04:49:40;12.50;95.60
43999;DHT22;51319;52.162;5.302;2022-10-16T04:52:07;12.50;95.90
43999;DHT22;51319;52.162;5.302;2022-10-16T04:54:35;12.50;95.60
43999;DHT22;51319;52.162;5.302;2022-10-16T04:57:01;12.40;95.60
43999;DHT22;51319;52.162;5.302;2022-10-16T04:59:27;12.40;95.60
43999;DHT22;51319;52.162;5.302;2022-10-16T05:01:53;12.40;95.60
43999;DHT22;51319;52.162;5.302;2022-10-16T05:04:19;12.40;95.60
43999;DHT22;51319;52.162;5.302;2022-10-16T05:06:45;12.30;95.70
43999;DHT22;51319;52.162;5.302;2022-10-16T05:09:11;12.30;95.70
43999;DHT22;51319;52.162;5.302;2022-10-16T05:11:37;12.30;95.90
43999;DHT22;51319;52.162;5.302;2022-10-16T05:14:03;12.30;95.90
43999;DHT22;51319;52.162;5.302;2022-10-16T05:16:30;12.20;95.90
43999;DHT22;51319;52.162;5.302;2022-10-16T05:18:56;12.20;96.00
43999;DHT22;51319;52.162;5.302;2022-10-16T05:21:43;12.20;96.00
43999;DHT22;51319;52.162;5.302;2022-10-16T05:24:09;12.20;96.10
43999;DHT22;51319;52.162;5.302;2022-10-16T05:26:35;12.20;96.20
43999;DHT22;51319;52.162;5.302;2022-10-16T05:29:01;12.20;96.30
43999;DHT22;51319;52.162;5.302;2022-10-16T05:31:28;12.30;96.40
43999;DHT22;51319;52.162;5.302;2022-10-16T05:33:59;12.30;96.40
43999;DHT22;51319;52.162;5.302;2022-10-16T05:36:26;12.30;96.40
43999;DHT22;51319;52.162;5.302;2022-10-16T05:38:52;12.40;96.40
43999;DHT22;51319;52.162;5.302;2022-10-16T05:41:18;12.30;96.40
43999;DHT22;51319;52.162;5.302;2022-10-16T05:43:48;12.40;96.40
43999;DHT22;51319;52.162;5.302;2022-10-16T05:46:14;12.40;96.40
43999;DHT22;51319;52.162;5.302;2022-10-16T05:48:42;12.40;96.20
43999;DHT22;51319;52.162;5.302;2022-10-16T05:51:10;12.50;96.30
43999;DHT22;51319;52.162;5.302;2022-10-16T05:53:39;12.60;96.30
43999;DHT22;51319;52.162;5.302;2022-10-16T05:56:07;12.60;96.20
43999;DHT22;51319;52.162;5.302;2022-10-16T05:58:37;12.60;96.10
43999;DHT22;51319;52.162;5.302;2022-10-16T06:01:15;12.70;96.10
43999;DHT22;51319;52.162;5.302;2022-10-16T06:03:42;12.70;96.00
43999;DHT22;51319;52.162;5.302;2022-10-16T06:06:13;12.80;96.00
43999;DHT22;51319;52.162;5.302;2022-10-16T06:08:41;12.80;95.90
43999;DHT22;51319;52.162;5.302;2022-10-16T06:11:10;12.80;95.80
43999;DHT22;51319;52.162;5.302;2022-10-16T06:13:37;12.80;95.80
43999;DHT22;51319;52.162;5.302;2022-10-16T06:16:03;12.90;95.70
43999;DHT22;51319;52.162;5.302;2022-10-16T06:18:30;12.80;95.70
43999;DHT22;51319;52.162;5.302;2022-10-16T06:20:56;12.80;95.70
43999;DHT22;51319;52.162;5.302;2022-10-16T06:23:23;12.90;95.70
43999;DHT22;51319;52.162;5.302;2022-10-16T06:25:50;12.90;95.70
43999;DHT22;51319;52.162;5.302;2022-10-16T06:28:16;13.00;95.70
43999;DHT22;51319;52.162;5.302;2022-10-16T06:30:42;13.00;95.60
43999;DHT22;51319;52.162;5.302;2022-10-16T06:33:12;13.00;95.60
43999;DHT22;51319;52.162;5.302;2022-10-16T06:35:39;13.00;95.50
43999;DHT22;51319;52.162;5.302;2022-10-16T06:38:05;13.00;95.50
43999;DHT22;51319;52.162;5.302;2022-10-16T06:40:31;13.00;95.50
43999;DHT22;51319;52.162;5.302;2022-10-16T06:42:57;13.00;95.60
43999;DHT22;51319;52.162;5.302;2022-10-16T06:45:23;13.00;95.70
43999;DHT22;51319;52.162;5.302;2022-10-16T06:47:49;13.00;95.70
43999;DHT22;51319;52.162;5.302;2022-10-16T06:50:15;13.00;95.80
43999;DHT22;51319;52.162;5.302;2022-10-16T06:52:41;13.00;95.70
43999;DHT22;51319;52.162;5.302;2022-10-16T06:55:08;13.00;95.70
43999;DHT22;51319;52.162;5.302;2022-10-16T06:57:34;13.00;95.70
43999;DHT22;51319;52.162;5.302;2022-10-16T07:00:00;13.00;95.80
43999;DHT22;51319;52.162;5.302;2022-10-16T07:02:26;13.10;95.80
43999;DHT22;51319;52.162;5.302;2022-10-16T07:04:53;13.10;95.80
43999;DHT22;51319;52.162;5.302;2022-10-16T07:07:19;13.10;95.80
43999;DHT22;51319;52.162;5.302;2022-10-16T07:09:45;13.10;95.90
43999;DHT22;51319;52.162;5.302;2022-10-16T07:12:11;13.30;95.90
43999;DHT22;51319;52.162;5.302;2022-10-16T07:14:37;13.30;95.80
43999;DHT22;51319;52.162;5.302;2022-10-16T07:17:03;13.40;95.60
43999;DHT22;51319;52.162;5.302;2022-10-16T07:19:29;13.40;95.50
43999;DHT22;51319;52.162;5.302;2022-10-16T07:22:00;13.50;95.30
43999;DHT22;51319;52.162;5.302;2022-10-16T07:24:26;13.50;95.30
43999;DHT22;51319;52.162;5.302;2022-10-16T07:26:52;13.50;95.20
43999;DHT22;51319;52.162;5.302;2022-10-16T07:29:20;13.60;95.20
43999;DHT22;51319;52.162;5.302;2022-10-16T07:31:47;13.70;95.30
43999;DHT22;51319;52.162;5.302;2022-10-16T07:34:15;13.80;94.80
43999;DHT22;51319;52.162;5.302;2022-10-16T07:36:42;13.90;94.60
43999;DHT22;51319;52.162;5.302;2022-10-16T07:39:13;14.00;94.40
43999;DHT22;51319;52.162;5.302;2022-10-16T07:41:39;14.00;94.10
43999;DHT22;51319;52.162;5.302;2022-10-16T07:44:05;14.10;93.80
43999;DHT22;51319;52.162;5.302;2022-10-16T07:46:32;14.10;93.50
43999;DHT22;51319;52.162;5.302;2022-10-16T07:48:59;14.10;93.40
43999;DHT22;51319;52.162;5.302;2022-10-16T07:51:26;14.00;93.10
43999;DHT22;51319;52.162;5.302;2022-10-16T07:53:52;14.00;92.90
43999;DHT22;51319;52.162;5.302;2022-10-16T07:56:19;13.90;93.00
43999;DHT22;51319;52.162;5.302;2022-10-16T07:58:46;13.90;93.10
43999;DHT22;51319;52.162;5.302;2022-10-16T08:01:14;13.90;93.20
43999;DHT22;51319;52.162;5.302;2022-10-16T08:03:45;14.00;93.20
43999;DHT22;51319;52.162;5.302;2022-10-16T08:06:11;14.00;93.20
43999;DHT22;51319;52.162;5.302;2022-10-16T08:08:38;14.00;93.20
43999;DHT22;51319;52.162;5.302;2022-10-16T08:11:04;14.10;93.20
43999;DHT22;51319;52.162;5.302;2022-10-16T08:13:31;14.30;93.10
43999;DHT22;51319;52.162;5.302;2022-10-16T08:15:57;14.60;93.30
43999;DHT22;51319;52.162;5.302;2022-10-16T08:18:24;15.10;93.00
43999;DHT22;51319;52.162;5.302;2022-10-16T08:20:57;15.40;92.30
43999;DHT22;51319;52.162;5.302;2022-10-16T08:23:24;16.50;92.10
43999;DHT22;51319;52.162;5.302;2022-10-16T08:26:01;18.60;90.10
43999;DHT22;51319;52.162;5.302;2022-10-16T08:28:28;20.40;79.70
43999;DHT22;51319;52.162;5.302;2022-10-16T08:30:54;21.40;75.60
43999;DHT22;51319;52.162;5.302;2022-10-16T08:33:22;22.70;70.60
43999;DHT22;51319;52.162;5.302;2022-10-16T08:35:52;23.80;65.40
43999;DHT22;51319;52.162;5.302;2022-10-16T08:38:19;24.70;61.40
43999;DHT22;51319;52.162;5.302;2022-10-16T08:40:46;25.50;59.40
43999;DHT22;51319;52.162;5.302;2022-10-16T08:45:59;26.70;54.80
43999;DHT22;51319;52.162;5.302;2022-10-16T08:48:42;27.20;53.00
43999;DHT22;51319;52.162;5.302;2022-10-16T08:51:11;27.50;51.20
43999;DHT22;51319;52.162;5.302;2022-10-16T08:53:56;27.50;50.90
43999;DHT22;51319;52.162;5.302;2022-10-16T08:56:24;27.50;49.80
43999;DHT22;51319;52.162;5.302;2022-10-16T08:58:53;26.30;52.30
43999;DHT22;51319;52.162;5.302;2022-10-16T09:01:47;26.60;51.30
43999;DHT22;51319;52.162;5.302;2022-10-16T09:07:25;26.50;51.30
43999;DHT22;51319;52.162;5.302;2022-10-16T09:12:51;26.10;50.70
43999;DHT22;51319;52.162;5.302;2022-10-16T09:15:25;24.40;52.90
43999;DHT22;51319;52.162;5.302;2022-10-16T09:18:18;23.00;56.10
43999;DHT22;51319;52.162;5.302;2022-10-16T09:21:09;22.10;58.30
43999;DHT22;51319;52.162;5.302;2022-10-16T09:23:37;21.40;59.90
43999;DHT22;51319;52.162;5.302;2022-10-16T09:26:05;21.10;62.00
43999;DHT22;51319;52.162;5.302;2022-10-16T09:28:32;21.00;62.60
43999;DHT22;51319;52.162;5.302;2022-10-16T09:30:58;21.10;63.30
43999;DHT22;51319;52.162;5.302;2022-10-16T09:33:29;23.10;61.10
43999;DHT22;51319;52.162;5.302;2022-10-16T09:35:57;24.50;55.70
43999;DHT22;51319;52.162;5.302;2022-10-16T09:38:33;24.10;55.00
43999;DHT22;51319;52.162;5.302;2022-10-16T09:41:01;24.10;55.10
43999;DHT22;51319;52.162;5.302;2022-10-16T09:43:41;24.40;55.00
43999;DHT22;51319;52.162;5.302;2022-10-16T09:46:34;24.90;52.90
43999;DHT22;51319;52.162;5.302;2022-10-16T09:49:04;23.70;54.20
43999;DHT22;51319;52.162;5.302;2022-10-16T09:51:33;24.60;53.40
43999;DHT22;51319;52.162;5.302;2022-10-16T09:54:17;24.60;52.80
43999;DHT22;51319;52.162;5.302;2022-10-16T09:56:44;24.00;53.40
43999;DHT22;51319;52.162;5.302;2022-10-16T09:59:19;23.00;56.10
43999;DHT22;51319;52.162;5.302;2022-10-16T10:01:51;22.80;56.90
43999;DHT22;51319;52.162;5.302;2022-10-16T10:04:23;24.10;54.80
43999;DHT22;51319;52.162;5.302;2022-10-16T10:06:55;23.90;54.30
43999;DHT22;51319;52.162;5.302;2022-10-16T10:09:34;24.90;53.60
43999;DHT22;51319;52.162;5.302;2022-10-16T10:12:05;26.10;50.80
43999;DHT22;51319;52.162;5.302;2022-10-16T10:14:45;26.20;49.90
43999;DHT22;51319;52.162;5.302;2022-10-16T10:17:18;27.10;48.30
43999;DHT22;51319;52.162;5.302;2022-10-16T10:41:05;26.20;46.60
43999;DHT22;51319;52.162;5.302;2022-10-16T10:46:30;25.00;49.00
43999;DHT22;51319;52.162;5.302;2022-10-16T10:49:20;24.90;49.80
43999;DHT22;51319;52.162;5.302;2022-10-16T10:52:10;25.10;49.70
43999;DHT22;51319;52.162;5.302;2022-10-16T10:55:08;26.00;48.80
43999;DHT22;51319;52.162;5.302;2022-10-16T10:57:41;26.00;48.10
43999;DHT22;51319;52.162;5.302;2022-10-16T11:04:25;30.20;43.80
43999;DHT22;51319;52.162;5.302;2022-10-16T11:06:36;31.30;40.60
43999;DHT22;51319;52.162;5.302;2022-10-16T11:17:23;31.80;37.80
43999;DHT22;51319;52.162;5.302;2022-10-16T11:20:11;32.60;37.80
43999;DHT22;51319;52.162;5.302;2022-10-16T11:22:43;33.00;36.80
43999;DHT22;51319;52.162;5.302;2022-10-16T11:25:26;31.30;37.50
43999;DHT22;51319;52.162;5.302;2022-10-16T11:27:58;29.90;38.60
43999;DHT22;51319;52.162;5.302;2022-10-16T11:30:34;28.70;40.50
43999;DHT22;51319;52.162;5.302;2022-10-16T11:38:53;30.60;37.40
43999;DHT22;51319;52.162;5.302;2022-10-16T11:41:36;29.80;38.30
43999;DHT22;51319;52.162;5.302;2022-10-16T11:47:19;31.00;37.00
43999;DHT22;51319;52.162;5.302;2022-10-16T11:52:56;31.50;36.70
43999;DHT22;51319;52.162;5.302;2022-10-16T11:55:31;31.30;35.90
43999;DHT22;51319;52.162;5.302;2022-10-16T11:58:09;31.20;36.90
43999;DHT22;51319;52.162;5.302;2022-10-16T12:00:58;31.30;36.40
43999;DHT22;51319;52.162;5.302;2022-10-16T12:03:34;31.50;36.60
43999;DHT22;51319;52.162;5.302;2022-10-16T12:08:59;30.60;35.80
43999;DHT22;51319;52.162;5.302;2022-10-16T12:14:22;28.00;39.00
43999;DHT22;51319;52.162;5.302;2022-10-16T12:19:26;26.50;42.30
43999;DHT22;51319;52.162;5.302;2022-10-16T12:21:56;26.00;43.30
43999;DHT22;51319;52.162;5.302;2022-10-16T12:26:58;25.20;44.10
43999;DHT22;51319;52.162;5.302;2022-10-16T12:29:44;24.90;45.00
43999;DHT22;51319;52.162;5.302;2022-10-16T12:32:40;24.80;45.70
43999;DHT22;51319;52.162;5.302;2022-10-16T12:35:21;24.40;45.30
43999;DHT22;51319;52.162;5.302;2022-10-16T12:37:49;24.30;46.60
43999;DHT22;51319;52.162;5.302;2022-10-16T12:40:31;24.10;47.30
43999;DHT22;51319;52.162;5.302;2022-10-16T12:43:11;24.00;47.30
43999;DHT22;51319;52.162;5.302;2022-10-16T12:45:39;23.80;46.90
43999;DHT22;51319;52.162;5.302;2022-10-16T12:48:19;23.50;46.70
43999;DHT22;51319;52.162;5.302;2022-10-16T12:50:46;23.20;47.60
43999;DHT22;51319;52.162;5.302;2022-10-16T12:53:25;23.10;47.70
43999;DHT22;51319;52.162;5.302;2022-10-16T12:58:57;22.70;48.50
43999;DHT22;51319;52.162;5.302;2022-10-16T13:04:47;22.60;49.00
43999;DHT22;51319;52.162;5.302;2022-10-16T13:12:56;22.20;50.20
43999;DHT22;51319;52.162;5.302;2022-10-16T13:15:52;22.30;50.60
43999;DHT22;51319;52.162;5.302;2022-10-16T13:24:13;22.10;49.80
43999;DHT22;51319;52.162;5.302;2022-10-16T13:26:53;22.00;50.60
43999;DHT22;51319;52.162;5.302;2022-10-16T13:29:22;21.90;50.40
43999;DHT22;51319;52.162;5.302;2022-10-16T13:31:48;21.80;50.40
43999;DHT22;51319;52.162;5.302;2022-10-16T13:34:18;21.80;50.60
43999;DHT22;51319;52.162;5.302;2022-10-16T13:36:48;21.70;50.80
43999;DHT22;51319;52.162;5.302;2022-10-16T13:39:23;21.70;51.10
43999;DHT22;51319;52.162;5.302;2022-10-16T13:44:54;21.60;51.70
43999;DHT22;51319;52.162;5.302;2022-10-16T13:47:24;21.40;52.20
43999;DHT22;51319;52.162;5.302;2022-10-16T13:50:06;21.40;52.80
43999;DHT22;51319;52.162;5.302;2022-10-16T13:52:32;21.40;53.50
43999;DHT22;51319;52.162;5.302;2022-10-16T13:54:58;21.30;52.60
43999;DHT22;51319;52.162;5.302;2022-10-16T13:57:28;21.20;52.50
43999;DHT22;51319;52.162;5.302;2022-10-16T13:59:55;21.20;52.30
43999;DHT22;51319;52.162;5.302;2022-10-16T14:02:27;21.20;52.70
43999;DHT22;51319;52.162;5.302;2022-10-16T14:04:56;21.20;52.70
43999;DHT22;51319;52.162;5.302;2022-10-16T14:07:25;21.10;52.40
43999;DHT22;51319;52.162;5.302;2022-10-16T14:09:53;21.10;52.80
43999;DHT22;51319;52.162;5.302;2022-10-16T14:12:20;21.10;53.40
43999;DHT22;51319;52.162;5.302;2022-10-16T14:14:54;21.00;53.20
43999;DHT22;51319;52.162;5.302;2022-10-16T14:17:29;21.00;53.00
43999;DHT22;51319;52.162;5.302;2022-10-16T14:19:58;21.00;53.70
43999;DHT22;51319;52.162;5.302;2022-10-16T14:22:33;21.00;53.90
43999;DHT22;51319;52.162;5.302;2022-10-16T14:25:02;20.90;53.40
43999;DHT22;51319;52.162;5.302;2022-10-16T14:27:32;20.80;54.60
43999;DHT22;51319;52.162;5.302;2022-10-16T14:30:15;20.70;55.20
43999;DHT22;51319;52.162;5.302;2022-10-16T14:32:56;20.70;54.80
43999;DHT22;51319;52.162;5.302;2022-10-16T14:35:30;20.70;55.00
43999;DHT22;51319;52.162;5.302;2022-10-16T14:37:58;20.60;55.30
43999;DHT22;51319;52.162;5.302;2022-10-16T14:40:36;20.60;56.20
43999;DHT22;51319;52.162;5.302;2022-10-16T14:43:03;20.50;56.70
43999;DHT22;51319;52.162;5.302;2022-10-16T14:45:32;20.50;57.30
43999;DHT22;51319;52.162;5.302;2022-10-16T14:48:14;20.40;57.50
43999;DHT22;51319;52.162;5.302;2022-10-16T14:50:45;20.40;58.20
43999;DHT22;51319;52.162;5.302;2022-10-16T14:53:14;20.40;56.90
43999;DHT22;51319;52.162;5.302;2022-10-16T14:55:43;20.30;57.40
43999;DHT22;51319;52.162;5.302;2022-10-16T14:58:21;20.20;57.40
43999;DHT22;51319;52.162;5.302;2022-10-16T15:00:48;20.20;58.40
43999;DHT22;51319;52.162;5.302;2022-10-16T15:03:14;20.10;58.70
43999;DHT22;51319;52.162;5.302;2022-10-16T15:05:40;20.10;57.90
43999;DHT22;51319;52.162;5.302;2022-10-16T15:08:10;20.00;58.80
43999;DHT22;51319;52.162;5.302;2022-10-16T15:10:43;19.90;59.50
43999;DHT22;51319;52.162;5.302;2022-10-16T15:13:12;19.80;59.80
43999;DHT22;51319;52.162;5.302;2022-10-16T15:15:45;19.70;60.00
43999;DHT22;51319;52.162;5.302;2022-10-16T15:18:11;19.70;60.20
43999;DHT22;51319;52.162;5.302;2022-10-16T15:20:40;19.70;60.40
43999;DHT22;51319;52.162;5.302;2022-10-16T15:23:21;19.50;61.10
43999;DHT22;51319;52.162;5.302;2022-10-16T15:25:52;19.40;61.90
43999;DHT22;51319;52.162;5.302;2022-10-16T15:28:20;19.30;62.80
43999;DHT22;51319;52.162;5.302;2022-10-16T15:30:49;19.20;63.50
43999;DHT22;51319;52.162;5.302;2022-10-16T15:33:18;19.10;63.80
43999;DHT22;51319;52.162;5.302;2022-10-16T15:35:48;19.00;64.20
43999;DHT22;51319;52.162;5.302;2022-10-16T15:38:16;18.90;64.70
43999;DHT22;51319;52.162;5.302;2022-10-16T15:40:42;18.80;65.20
43999;DHT22;51319;52.162;5.302;2022-10-16T15:43:10;18.60;65.70
43999;DHT22;51319;52.162;5.302;2022-10-16T15:45:37;18.60;66.50
43999;DHT22;51319;52.162;5.302;2022-10-16T15:48:04;18.50;67.20
43999;DHT22;51319;52.162;5.302;2022-10-16T15:50:31;18.40;67.70
43999;DHT22;51319;52.162;5.302;2022-10-16T15:52:58;18.40;68.10
43999;DHT22;51319;52.162;5.302;2022-10-16T15:55:24;18.30;68.50
43999;DHT22;51319;52.162;5.302;2022-10-16T15:57:51;18.30;69.00
43999;DHT22;51319;52.162;5.302;2022-10-16T16:00:19;18.20;69.50
43999;DHT22;51319;52.162;5.302;2022-10-16T16:02:52;18.20;70.10
43999;DHT22;51319;52.162;5.302;2022-10-16T16:05:21;18.10;70.60
43999;DHT22;51319;52.162;5.302;2022-10-16T16:07:48;18.00;71.20
43999;DHT22;51319;52.162;5.302;2022-10-16T16:10:15;17.90;72.00
43999;DHT22;51319;52.162;5.302;2022-10-16T16:12:41;17.90;72.50
43999;DHT22;51319;52.162;5.302;2022-10-16T16:15:10;17.80;72.60
43999;DHT22;51319;52.162;5.302;2022-10-16T16:17:37;17.80;72.90
43999;DHT22;51319;52.162;5.302;2022-10-16T16:20:04;17.80;73.20
43999;DHT22;51319;52.162;5.302;2022-10-16T16:22:30;17.70;73.50
43999;DHT22;51319;52.162;5.302;2022-10-16T16:24:57;17.60;73.90
43999;DHT22;51319;52.162;5.302;2022-10-16T16:27:24;17.50;74.20
43999;DHT22;51319;52.162;5.302;2022-10-16T16:29:56;17.50;74.50
43999;DHT22;51319;52.162;5.302;2022-10-16T16:32:22;17.50;74.80
43999;DHT22;51319;52.162;5.302;2022-10-16T16:34:48;17.40;75.20
43999;DHT22;51319;52.162;5.302;2022-10-16T16:37:15;17.30;75.70
43999;DHT22;51319;52.162;5.302;2022-10-16T16:39:41;17.20;76.20
43999;DHT22;51319;52.162;5.302;2022-10-16T16:42:07;17.10;76.70
43999;DHT22;51319;52.162;5.302;2022-10-16T16:44:33;17.10;76.90
43999;DHT22;51319;52.162;5.302;2022-10-16T16:47:03;17.00;77.30
43999;DHT22;51319;52.162;5.302;2022-10-16T16:49:29;16.90;77.70
43999;DHT22;51319;52.162;5.302;2022-10-16T16:51:55;16.80;78.10
43999;DHT22;51319;52.162;5.302;2022-10-16T16:54:21;16.70;78.60
43999;DHT22;51319;52.162;5.302;2022-10-16T16:56:48;16.60;78.90
43999;DHT22;51319;52.162;5.302;2022-10-16T16:59:17;16.50;79.30
43999;DHT22;51319;52.162;5.302;2022-10-16T17:01:46;16.50;79.70
43999;DHT22;51319;52.162;5.302;2022-10-16T17:04:12;16.50;79.80
43999;DHT22;51319;52.162;5.302;2022-10-16T17:06:41;16.40;80.10
43999;DHT22;51319;52.162;5.302;2022-10-16T17:09:08;16.30;80.40
43999;DHT22;51319;52.162;5.302;2022-10-16T17:11:35;16.20;80.60
43999;DHT22;51319;52.162;5.302;2022-10-16T17:14:02;16.20;81.00
43999;DHT22;51319;52.162;5.302;2022-10-16T17:16:34;16.10;81.10
43999;DHT22;51319;52.162;5.302;2022-10-16T17:19:07;16.10;81.50
43999;DHT22;51319;52.162;5.302;2022-10-16T17:21:34;16.00;81.80
43999;DHT22;51319;52.162;5.302;2022-10-16T17:24:01;16.00;81.90